Hauptseite
METAR-TAF:

METAR-TAF

Flughäfen :

Venedig, Italien

Flughafen Venedig-Tessera

Breite: 45-30N, Länge: 012-20E, Höhe: 2 m

Beobachtung

Neuester Wetterbericht von vor 23 Minuten, um 09:50 UTC
Wind 11 kt aus Nordost
Temperatur 23°C
Luftfeuchtigkeit 36%
Luftdruck 1028 hPa
Sichtweite 10 km oder mehr
keine Wolken unter 1500 m und keine Kumulonimbus oder Gewitterwolken

METAR: LIPZ 190950Z 05011KT CAVOK 23/07 Q1028 NOSIG

Zeit: 12:13 (10:13 UTC)

Prognose

Neuester Wetterbericht von vor 5 Stunden und 13 Minuten, um 05:00 UTC
Gültige Prognose vom 19 um 06 UTC bis 20 um 12 UTC
Wind 8 kt aus Nordost
Sichtweite 10 km oder mehr
keine Wolken unter 1500 m und keine Kumulonimbus oder Gewitterwolken

TAF: LIPZ 190500Z 1906/2012 04008KT CAVOK

Wetterbeobachtungen und Prognosen von mehr als 4000 Flughäfen (METAR und TAF Bericht).

Die verfügbaren Stationen werden durch gelbe und rote Markierungen auf der Karte dargestellt.

Führen Sie die Maus auf sie, um den Namen der Station zu sehen.

Darauf klicken, um die Beobachtung von Wetterbeobachtungen und Prognosen zu sehen.

Um die Karte zu ändern : klicken Sie auf den grünen Tasten mit einem schwarzen Kreuz Zum Vergrößern, auf den grünen Button mit einem Gedankenstrich zu verkleinern, oder auf die grünen Pfeile für benachbarte Karten.


METAR-TAF: